Airport View

Enter AWOS ICAO identifier for current METAR.

ex. KFNL

KJAC 191856Z 20020G26KT 10SM SCT065 19/04 A2998 RMK AO2 PK WND 20029/1815 SLP105 T01890039

19 Jun 2019 19:41

Frequency: 120.625

Phone: 307-739-9108

Other Area AWOS: KDIJ - K46U - KDUB - KRXE

TAF KJAC 191727Z 1918/2018 20015G22KT P6SM SCT070 SCT180 FM192100 22025G35KT P6SM SCT180 FM200600 23010KT P6SM SKC FM201700 21011G18KT P6SM BKN090 AMD LTD TO CLD VIS AND WIND